Time;durP1;ratioP1;P1;durP2;ratioP2;P2;SDS_P1;SDS_P2;PMS_P1;PMS_P2;Temp;Humidity;BMP_temperature;BMP_pressure;BME280_temperature;BME280_humidity;BME280_pressure;Samples;Min_cycle;Max_cycle;Signal;HPM_P1;HPM_P2
2022/11/16 00:02:04;;;;;;;16.45;9.65;;;26.50;94.20;;;;;;1936341;73;21141;-83
2022/11/16 00:04:35;;;;;;;16.73;10.93;;;26.60;94.20;;;;;;1917733;73;21111;-82
2022/11/16 00:07:06;;;;;;;18.20;10.60;;;26.60;94.60;;;;;;1928976;73;21190;-83
2022/11/16 00:09:38;;;;;;;16.37;10.75;;;26.60;94.20;;;;;;1930371;73;21296;-83
2022/11/16 00:12:12;;;;;;;19.40;12.80;;;26.60;94.30;;;;;;1932141;73;21099;-83
2022/11/16 00:14:43;;;;;;;14.70;10.15;;;26.60;94.20;;;;;;1931974;73;21131;-83
2022/11/16 00:17:14;;;;;;;15.60;8.25;;;26.60;94.10;;;;;;1936763;73;21067;-82
2022/11/16 00:19:53;;;;;;;10.15;5.28;;;26.70;94.10;;;;;;1936299;73;21156;-83
2022/11/16 00:22:20;;;;;;;6.90;4.37;;;26.70;94.00;;;;;;1942316;73;21264;-83
2022/11/16 00:24:51;;;;;;;9.90;4.90;;;26.70;93.80;;;;;;1929270;73;21173;-83
2022/11/16 00:27:24;;;;;;;8.83;4.33;;;26.70;93.80;;;;;;1947487;73;21227;-84
2022/11/16 00:29:55;;;;;;;7.97;4.47;;;26.70;93.70;;;;;;1918234;73;21225;-81
2022/11/16 00:32:26;;;;;;;5.97;3.35;;;26.60;93.70;;;;;;1930123;73;21276;-83
2022/11/16 00:34:57;;;;;;;8.20;3.70;;;26.70;93.40;;;;;;1932541;73;21281;-83
2022/11/16 00:37:28;;;;;;;11.00;5.85;;;26.70;93.60;;;;;;1934726;73;21149;-82
2022/11/16 00:39:58;;;;;;;8.23;5.35;;;26.60;93.40;;;;;;1932231;73;21113;-84
2022/11/16 00:42:29;;;;;;;9.65;4.70;;;26.70;93.60;;;;;;1925167;73;21209;-83
2022/11/16 00:45:00;;;;;;;9.70;5.47;;;26.70;93.50;;;;;;1934019;73;21207;-82
2022/11/16 00:47:34;;;;;;;9.35;5.42;;;26.70;93.60;;;;;;1936107;73;21139;-83
2022/11/16 00:50:05;;;;;;;8.43;4.35;;;26.70;93.40;;;;;;1924569;73;21217;-83
2022/11/16 00:52:36;;;;;;;9.08;5.60;;;26.80;93.20;;;;;;1925196;73;21140;-83
2022/11/16 00:55:08;;;;;;;7.55;4.62;;;26.80;93.20;;;;;;1930696;74;21074;-82
2022/11/16 00:57:39;;;;;;;9.90;3.85;;;26.90;93.10;;;;;;1914435;74;21156;-84
2022/11/16 01:00:11;;;;;;;10.78;4.12;;;26.90;92.80;;;;;;1871358;76;21517;-84
2022/11/16 01:02:42;;;;;;;9.75;3.60;;;26.90;92.80;;;;;;1889698;75;21189;-84
2022/11/16 01:05:14;;;;;;;6.42;2.80;;;27.00;92.90;;;;;;1889937;76;21237;-84
2022/11/16 01:07:44;;;;;;;8.93;3.58;;;27.10;92.70;;;;;;1877548;76;21135;-83
2022/11/16 01:10:18;;;;;;;7.15;4.10;;;27.10;92.60;;;;;;1858314;76;21507;-75
2022/11/16 01:12:50;;;;;;;6.30;3.55;;;27.00;92.70;;;;;;1885861;75;21136;-76
2022/11/16 01:15:24;;;;;;;8.23;3.67;;;27.10;92.60;;;;;;1884117;76;21168;-76
2022/11/16 01:17:56;;;;;;;9.38;3.83;;;27.00;92.70;;;;;;1889263;76;21234;-75
2022/11/16 01:20:29;;;;;;;9.23;3.45;;;27.10;92.70;;;;;;1881317;76;21088;-75
2022/11/16 01:23:00;;;;;;;6.58;3.45;;;27.10;92.60;;;;;;1889956;75;21184;-75
2022/11/16 01:25:31;;;;;;;10.00;3.87;;;27.10;92.60;;;;;;1888754;76;21163;-75
2022/11/16 01:28:02;;;;;;;8.93;4.08;;;27.20;92.70;;;;;;1888977;76;21542;-75
2022/11/16 01:30:33;;;;;;;7.78;3.58;;;27.20;92.70;;;;;;1886705;76;21244;-75
2022/11/16 01:33:05;;;;;;;6.97;3.55;;;27.30;92.10;;;;;;1849684;77;21139;-75
2022/11/16 01:35:36;;;;;;;9.08;3.08;;;27.40;92.10;;;;;;1864495;76;21195;-75
2022/11/16 01:38:07;;;;;;;6.22;3.87;;;27.50;91.90;;;;;;1860147;76;21754;-74
2022/11/16 01:40:38;;;;;;;9.50;3.08;;;27.50;91.90;;;;;;1867052;76;21073;-76
2022/11/16 01:43:21;;;;;;;7.87;3.50;;;27.60;91.80;;;;;;1889439;76;21160;-75
2022/11/16 01:45:52;;;;;;;10.32;3.20;;;27.70;91.60;;;;;;1889737;76;21109;-76
2022/11/16 01:48:25;;;;;;;7.70;2.95;;;27.70;91.60;;;;;;1887839;76;21113;-75
2022/11/16 01:50:57;;;;;;;7.28;3.15;;;27.70;91.40;;;;;;1864991;76;21128;-75
2022/11/16 01:53:28;;;;;;;7.08;2.70;;;27.70;91.20;;;;;;1892693;75;21774;-74
2022/11/16 01:56:00;;;;;;;5.70;2.72;;;27.70;91.00;;;;;;1888080;76;21221;-75
2022/11/16 01:58:32;;;;;;;8.28;3.20;;;27.80;91.10;;;;;;1850766;77;21133;-74
2022/11/16 02:01:04;;;;;;;15.45;5.05;;;27.80;91.00;;;;;;1866441;76;21144;-76
2022/11/16 02:03:37;;;;;;;10.05;2.80;;;27.90;91.20;;;;;;1884450;76;21599;-76
2022/11/16 02:06:14;;;;;;;4.62;2.30;;;28.00;90.70;;;;;;1872770;75;21529;-75
2022/11/16 02:12:18;;;;;;;6.45;3.02;;;28.00;90.50;;;;;;1883390;75;20238;-75
2022/11/16 02:15:11;;;;;;;7.97;3.50;;;28.10;90.40;;;;;;1888248;76;21068;-76
2022/11/16 02:18:02;;;;;;;9.85;4.87;;;28.20;90.60;;;;;;1884850;76;21213;-75
2022/11/16 02:20:51;;;;;;;7.15;4.05;;;28.20;90.70;;;;;;1850883;77;21192;-76
2022/11/16 02:23:42;;;;;;;9.23;4.65;;;28.20;90.60;;;;;;1801667;77;21191;-74
2022/11/16 02:26:40;;;;;;;10.23;5.08;;;28.30;90.70;;;;;;1839822;77;21163;-75
2022/11/16 02:29:31;;;;;;;9.73;4.97;;;28.30;90.60;;;;;;1874692;76;21151;-75
2022/11/16 02:32:16;;;;;;;9.08;4.15;;;28.30;90.60;;;;;;1891534;75;21145;-75
2022/11/16 02:34:58;;;;;;;9.98;4.05;;;28.20;90.60;;;;;;1889450;76;21647;-75
2022/11/16 02:37:56;;;;;;;8.53;3.72;;;28.30;90.50;;;;;;1888270;76;21132;-74
2022/11/16 02:40:29;;;;;;;6.47;3.08;;;28.30;90.60;;;;;;1873050;76;21225;-75
2022/11/16 02:43:13;;;;;;;9.53;3.30;;;28.30;90.60;;;;;;1855805;77;21199;-74
2022/11/16 02:45:47;;;;;;;6.03;2.35;;;28.40;90.40;;;;;;1862262;76;21133;-75
2022/11/16 02:48:23;;;;;;;6.35;2.85;;;28.40;90.50;;;;;;1888081;75;21137;-75
2022/11/16 02:50:55;;;;;;;6.08;2.62;;;28.40;90.30;;;;;;1927150;73;21135;-76
2022/11/16 02:53:27;;;;;;;5.58;3.00;;;28.50;90.20;;;;;;1927775;74;21105;-75
2022/11/16 02:55:58;;;;;;;7.58;3.20;;;28.60;90.30;;;;;;1928078;73;21769;-74
2022/11/16 02:58:29;;;;;;;7.00;3.30;;;28.70;90.10;;;;;;1887460;76;21696;-74
2022/11/16 03:01:25;;;;;;;;;;;;;;;;;;;;;
2022/11/16 03:04:04;;;;;;;9.13;3.02;;;28.70;89.50;;;;;;1888823;74;21112;-75
2022/11/16 03:06:38;;;;;;;8.13;2.98;;;28.80;90.00;;;;;;1890866;75;21693;-75
2022/11/16 03:09:24;;;;;;;6.72;3.05;;;28.90;89.90;;;;;;1893804;75;21161;-74
2022/11/16 03:12:01;;;;;;;8.53;2.55;;;28.90;89.50;;;;;;1891398;75;21697;-76
2022/11/16 03:14:53;;;;;;;5.85;3.12;;;29.00;89.50;;;;;;1932076;74;21596;-75
2022/11/16 03:17:26;;;;;;;7.67;2.80;;;29.10;89.00;;;;;;1933132;73;21115;-75
2022/11/16 03:20:14;;;;;;;5.45;2.90;;;29.30;88.60;;;;;;1927551;73;21137;-75
2022/11/16 03:22:54;;;;;;;6.00;2.33;;;29.40;87.90;;;;;;1929727;73;21634;-75
2022/11/16 03:25:27;;;;;;;9.88;3.02;;;29.40;87.40;;;;;;1930572;73;21132;-74
2022/11/16 03:28:15;;;;;;;6.35;2.37;;;29.50;87.50;;;;;;1925128;74;21252;-75
2022/11/16 03:30:48;;;;;;;6.03;2.77;;;29.50;87.00;;;;;;1923679;73;21076;-76
2022/11/16 03:33:25;;;;;;;4.33;2.50;;;29.60;87.30;;;;;;1929980;74;21144;-75
2022/11/16 03:36:13;;;;;;;5.35;2.58;;;29.60;86.30;;;;;;1931453;73;21748;-76
2022/11/16 03:38:47;;;;;;;5.20;2.10;;;29.70;85.80;;;;;;1930953;74;22125;-75
2022/11/16 03:41:20;;;;;;;5.67;2.10;;;29.80;85.50;;;;;;1932593;74;21234;-77
2022/11/16 03:43:53;;;;;;;9.35;3.02;;;29.80;85.40;;;;;;1932735;74;21238;-77
2022/11/16 03:46:24;;;;;;;5.87;2.85;;;29.80;85.70;;;;;;1932556;73;21129;-77
2022/11/16 03:49:00;;;;;;;6.47;2.42;;;29.70;85.90;;;;;;1932920;74;21142;-77
2022/11/16 03:51:31;;;;;;;7.63;2.40;;;29.70;86.20;;;;;;1923405;74;21124;-75
2022/11/16 03:54:03;;;;;;;4.08;2.00;;;29.80;86.40;;;;;;1929383;74;21256;-74
2022/11/16 03:56:34;;;;;;;8.58;2.20;;;30.00;85.80;;;;;;1927487;74;21179;-75
2022/11/16 03:59:05;;;;;;;5.05;2.45;;;30.20;84.80;;;;;;1931116;74;21213;-76
2022/11/16 04:01:36;;;;;;;3.85;2.20;;;30.30;84.50;;;;;;1930393;74;21580;-76
2022/11/16 04:24:10;;;;;;;5.72;2.70;;;30.40;83.80;;;;;;1926184;74;21235;-75
2022/11/16 04:28:12;;;;;;;6.92;2.50;;;31.10;80.70;;;;;;1919335;74;21060;-76
2022/11/16 04:28:57;;;;;;;5.83;2.17;;;31.20;81.30;;;;;;1942100;74;21610;-77
2022/11/16 04:39:55;;;;;;;7.80;2.30;;;31.60;78.30;;;;;;1926557;73;21158;-78
2022/11/16 04:42:26;;;;;;;5.83;2.45;;;31.60;78.50;;;;;;1929080;74;21162;-76
2022/11/16 04:47:42;;;;;;;4.40;2.20;;;31.60;78.90;;;;;;1870494;74;21631;-74
2022/11/16 04:50:13;;;;;;;4.33;2.02;;;31.70;78.80;;;;;;1929563;73;21519;-76
2022/11/16 04:52:45;;;;;;;5.58;2.40;;;31.70;78.30;;;;;;1928506;74;21907;-74
2022/11/16 04:55:17;;;;;;;5.33;2.58;;;31.80;78.40;;;;;;1889205;74;21447;-77
2022/11/16 04:57:48;;;;;;;5.05;2.30;;;31.90;78.10;;;;;;1880612;76;21182;-76
2022/11/16 05:00:20;;;;;;;6.03;2.05;;;32.00;77.90;;;;;;1891483;75;21083;-77
2022/11/16 05:02:51;;;;;;;4.65;2.25;;;32.00;77.00;;;;;;1894503;76;21147;-75
2022/11/16 05:05:24;;;;;;;5.17;2.10;;;32.00;77.20;;;;;;1891771;76;21203;-77
2022/11/16 05:07:55;;;;;;;4.65;2.40;;;31.90;76.80;;;;;;1863395;77;21154;-76
2022/11/16 05:10:27;;;;;;;3.98;1.95;;;31.90;77.00;;;;;;1881451;75;21871;-76
2022/11/16 05:12:59;;;;;;;3.85;1.92;;;31.90;77.20;;;;;;1894457;74;21115;-77
2022/11/16 05:15:33;;;;;;;4.58;2.25;;;31.90;77.20;;;;;;1888771;76;21243;-76
2022/11/16 05:18:04;;;;;;;6.83;2.77;;;31.90;77.40;;;;;;1890583;75;21170;-78
2022/11/16 05:26:13;;;;;;;5.17;2.15;;;31.80;76.80;;;;;;1871196;76;21732;-76
2022/11/16 05:28:44;;;;;;;5.42;2.30;;;31.80;77.30;;;;;;1893717;76;21202;-77
2022/11/16 05:31:15;;;;;;;4.58;1.85;;;31.90;78.10;;;;;;1890428;74;21682;-77
2022/11/16 05:33:49;;;;;;;5.95;2.20;;;32.00;76.30;;;;;;1889348;75;21160;-75
2022/11/16 05:36:26;;;;;;;5.72;1.98;;;32.10;75.50;;;;;;1838347;76;21098;-75
2022/11/16 05:38:56;;;;;;;6.30;2.17;;;32.20;74.90;;;;;;1858888;76;21600;-76
2022/11/16 05:41:34;;;;;;;5.97;2.05;;;32.10;74.00;;;;;;1850446;76;21104;-75
2022/11/16 05:44:05;;;;;;;4.83;2.17;;;32.20;75.20;;;;;;1849497;76;21206;-76
2022/11/16 05:46:40;;;;;;;5.40;2.30;;;32.20;75.40;;;;;;1849965;76;21239;-76
2022/11/16 05:49:11;;;;;;;6.50;2.77;;;32.30;75.20;;;;;;1858960;76;21164;-76
2022/11/16 05:51:43;;;;;;;6.47;2.30;;;32.40;76.00;;;;;;1862107;77;21159;-76
2022/11/16 05:54:17;;;;;;;5.50;2.20;;;32.40;75.10;;;;;;1862265;77;21678;-76
2022/11/16 05:56:54;;;;;;;4.33;2.02;;;32.30;73.60;;;;;;1879381;75;21609;-75
2022/11/16 05:59:41;;;;;;;5.40;2.20;;;32.30;74.60;;;;;;1887593;74;21111;-76
2022/11/16 06:02:12;;;;;;;5.17;2.00;;;32.40;74.10;;;;;;1886215;76;21453;-77
2022/11/16 06:04:43;;;;;;;5.00;2.62;;;32.40;74.40;;;;;;1883807;76;21124;-76
2022/11/16 06:07:14;;;;;;;6.58;2.27;;;32.50;75.80;;;;;;1886081;76;21426;-77
2022/11/16 06:09:46;;;;;;;5.92;2.65;;;32.50;73.60;;;;;;1881560;74;21635;-75
2022/11/16 06:12:17;;;;;;;5.62;2.22;;;32.60;73.60;;;;;;1886800;75;21555;-76
2022/11/16 06:14:52;;;;;;;5.58;2.02;;;32.60;74.00;;;;;;1887490;76;21679;-75
2022/11/16 06:20:22;;;;;;;4.97;2.35;;;32.70;73.20;;;;;;1821410;75;21171;-75
2022/11/16 06:23:09;;;;;;;;;;;;;;;;;;;;;
2022/11/16 06:25:56;;;;;;;3.95;2.17;;;32.70;72.20;;;;;;1864356;74;21189;-77
2022/11/16 06:29:09;;;;;;;5.50;2.58;;;32.70;72.60;;;;;;1865609;76;21127;-76
2022/11/16 06:32:05;;;;;;;4.12;1.90;;;32.70;72.90;;;;;;1844220;77;21230;-77
2022/11/16 06:34:36;;;;;;;4.85;2.20;;;32.70;72.40;;;;;;1868469;76;21226;-76
2022/11/16 06:37:12;;;;;;;5.47;2.17;;;32.70;72.10;;;;;;1859146;76;21199;-76
2022/11/16 06:39:39;;;;;;;5.58;2.20;;;32.70;72.50;;;;;;1858171;76;21185;-76
2022/11/16 06:42:10;;;;;;;7.05;2.60;;;32.70;72.60;;;;;;1873094;76;21175;-77
2022/11/16 06:44:42;;;;;;;4.05;2.10;;;32.80;72.80;;;;;;1871666;76;21104;-76
2022/11/16 06:47:13;;;;;;;5.53;2.98;;;32.90;72.20;;;;;;1871107;76;21199;-76
2022/11/16 06:49:45;;;;;;;5.10;2.37;;;32.90;71.90;;;;;;1876135;76;21146;-75
2022/11/16 06:52:19;;;;;;;5.25;2.30;;;33.00;72.10;;;;;;1878073;76;21136;-76
2022/11/16 06:54:50;;;;;;;5.20;1.80;;;32.90;71.50;;;;;;1875752;76;21123;-76
2022/11/16 06:57:45;;;;;;;3.30;1.80;;;32.80;70.40;;;;;;1874121;76;21868;-74
2022/11/16 07:00:19;;;;;;;5.12;2.15;;;32.70;70.70;;;;;;1850282;76;21090;-75
2022/11/16 07:02:59;;;;;;;4.70;1.95;;;32.60;70.80;;;;;;1866198;75;21824;-75
2022/11/16 07:05:34;;;;;;;6.42;2.08;;;32.60;71.70;;;;;;1840057;76;21261;-74
2022/11/16 07:08:06;;;;;;;4.28;2.33;;;32.60;71.40;;;;;;1900025;74;21642;-76
2022/11/16 07:10:46;;;;;;;4.37;2.12;;;32.60;71.70;;;;;;1897427;74;21205;-74
2022/11/16 07:13:10;;;;;;;3.52;1.82;;;32.60;71.60;;;;;;1920362;74;21131;-75
2022/11/16 07:15:44;;;;;;;4.42;1.92;;;32.70;72.20;;;;;;1927182;74;21103;-76
2022/11/16 07:18:16;;;;;;;5.40;2.05;;;32.70;71.60;;;;;;1887528;76;21123;-76
2022/11/16 07:23:41;;;;;;;4.37;2.02;;;32.60;71.60;;;;;;1753516;77;21130;-75
2022/11/16 07:26:19;;;;;;;4.17;1.95;;;32.60;71.50;;;;;;1900019;75;21139;-75
2022/11/16 07:29:10;;;;;;;5.33;1.70;;;32.50;71.80;;;;;;1865205;75;21111;-77
2022/11/16 07:31:42;;;;;;;4.53;1.62;;;32.40;71.90;;;;;;1880254;75;21141;-75
2022/11/16 07:37:11;;;;;;;5.55;2.47;;;32.50;71.20;;;;;;1803081;79;21673;-75
2022/11/16 07:42:39;;;;;;;5.42;2.30;;;32.60;71.50;;;;;;1711473;82;21124;-75
2022/11/16 07:45:24;;;;;;;4.47;1.77;;;32.60;69.90;;;;;;1942150;72;22600;-76
2022/11/16 07:48:21;;;;;;;3.95;1.72;;;32.70;70.70;;;;;;1911837;75;21255;-78
2022/11/16 07:50:53;;;;;;;3.52;1.87;;;32.70;69.90;;;;;;1877549;75;21159;-76
2022/11/16 07:53:25;;;;;;;5.78;2.45;;;32.60;70.10;;;;;;1889481;75;21214;-77
2022/11/16 07:56:03;;;;;;;4.65;2.37;;;32.70;70.50;;;;;;1834244;76;21114;-76
2022/11/16 08:01:51;;;;;;;5.90;2.00;;;32.70;70.60;;;;;;1693699;83;21722;-75
2022/11/16 08:05:14;;;;;;;4.80;2.20;;;32.80;70.30;;;;;;1917310;73;28062;-75
2022/11/16 08:08:10;;;;;;;5.90;2.15;;;32.80;69.50;;;;;;1828628;77;21485;-75
2022/11/16 08:10:49;;;;;;;6.75;2.17;;;32.80;71.00;;;;;;1899091;73;21530;-75
2022/11/16 08:13:20;;;;;;;5.87;2.00;;;32.80;69.80;;;;;;1908537;75;21647;-76
2022/11/16 08:15:51;;;;;;;4.72;1.77;;;32.70;70.10;;;;;;1891828;75;21061;-76
2022/11/16 08:18:22;;;;;;;5.80;1.92;;;32.70;69.50;;;;;;1884004;76;21098;-76
2022/11/16 08:20:54;;;;;;;5.78;1.95;;;32.70;70.00;;;;;;1890084;75;21143;-74
2022/11/16 08:23:25;;;;;;;5.08;1.85;;;32.80;70.00;;;;;;1880520;75;21124;-76
2022/11/16 08:26:20;;;;;;;4.85;2.02;;;32.80;70.10;;;;;;1905369;74;21182;-75
2022/11/16 08:29:43;;;;;;;4.85;2.00;;;32.70;69.50;;;;;;1897038;74;21248;-76
2022/11/16 08:32:46;;;;;;;;;;;;;;;;;;;;;
2022/11/16 08:38:49;;;;;;;6.28;2.27;;;32.60;69.70;;;;;;1739496;81;21286;-76
2022/11/16 09:03:23;;;;;;;6.92;2.47;;;32.60;70.60;;;;;;1746912;79;21254;-76
2022/11/16 09:05:54;;;;;;;3.85;1.85;;;32.60;71.20;;;;;;1746439;81;21229;-74
2022/11/16 09:08:24;;;;;;;4.42;1.90;;;32.40;71.00;;;;;;1845411;76;21223;-76
2022/11/16 09:10:55;;;;;;;4.50;2.02;;;32.30;71.40;;;;;;1868740;75;21239;-76
2022/11/16 09:13:28;;;;;;;6.47;2.22;;;32.30;71.70;;;;;;1878554;76;21135;-76
2022/11/16 09:16:04;;;;;;;4.72;2.15;;;32.20;71.80;;;;;;1861895;76;21233;-76
2022/11/16 09:18:37;;;;;;;6.92;2.10;;;32.10;71.60;;;;;;1880899;76;21160;-76
2022/11/16 09:21:16;;;;;;;4.55;1.90;;;32.20;72.00;;;;;;1870201;76;21131;-76
2022/11/16 09:24:03;;;;;;;8.50;1.98;;;32.10;71.60;;;;;;1865862;76;21642;-75
2022/11/16 09:26:35;;;;;;;7.08;2.35;;;32.10;71.80;;;;;;1774713;80;21117;-75
2022/11/16 09:29:07;;;;;;;8.80;2.40;;;32.10;71.80;;;;;;1787960;79;21631;-77
2022/11/16 09:31:39;;;;;;;7.75;2.80;;;32.10;71.80;;;;;;1785130;79;21576;-78
2022/11/16 09:34:10;;;;;;;9.08;2.87;;;32.00;72.20;;;;;;1769643;80;21274;-76
2022/11/16 09:36:41;;;;;;;213.00;23.07;;;32.00;72.70;;;;;;1734152;82;21233;-75
2022/11/16 09:39:13;;;;;;;66.95;6.97;;;31.90;73.00;;;;;;1775091;79;21195;-75
2022/11/16 09:41:59;;;;;;;50.30;6.78;;;31.80;73.10;;;;;;1727113;82;21151;-75
2022/11/16 09:45:19;;;;;;;11.80;3.05;;;31.80;73.30;;;;;;1755779;80;21281;-76
2022/11/16 09:47:56;;;;;;;9.10;2.85;;;31.60;73.20;;;;;;1773968;80;21189;-75
2022/11/16 09:50:54;;;;;;;7.80;2.45;;;31.60;73.10;;;;;;1776498;80;21172;-76
2022/11/16 09:53:28;;;;;;;4.20;2.40;;;31.60;73.40;;;;;;1773350;79;21117;-77
2022/11/16 09:56:03;;;;;;;5.50;2.40;;;31.60;73.70;;;;;;1776376;79;21078;-76
2022/11/16 09:58:42;;;;;;;6.30;2.35;;;31.60;73.20;;;;;;1773795;79;21121;-77
2022/11/16 10:01:27;;;;;;;5.95;2.37;;;31.50;73.00;;;;;;1770997;81;21228;-76
2022/11/16 10:04:01;;;;;;;4.92;2.50;;;31.50;72.90;;;;;;1774477;79;21291;-76
2022/11/16 10:06:35;;;;;;;6.80;2.42;;;31.50;73.00;;;;;;1736984;81;21139;-77
2022/11/16 10:09:09;;;;;;;6.47;2.83;;;31.40;72.90;;;;;;1771308;79;22037;-76
2022/11/16 10:12:05;;;;;;;7.08;2.47;;;31.50;73.20;;;;;;1774075;79;21180;-77
2022/11/16 10:14:56;;;;;;;4.37;2.12;;;31.40;73.20;;;;;;1734738;81;21188;-75
2022/11/16 10:17:49;;;;;;;5.75;2.67;;;31.40;73.50;;;;;;1716784;82;21273;-76
2022/11/16 10:20:30;;;;;;;8.45;2.75;;;31.40;73.70;;;;;;1714615;82;21268;-76
2022/11/16 10:23:11;;;;;;;5.17;2.77;;;31.40;73.90;;;;;;1778251;80;21631;-76
2022/11/16 10:33:01;;;;;;;;;;;;;;;;;;;;;
2022/11/16 10:48:44;;;;;;;9.70;3.20;;;31.30;74.70;;;;;;1904361;73;22262;-76
2022/11/16 10:51:22;;;;;;;8.98;4.20;;;31.20;75.00;;;;;;1919652;73;21091;-76
2022/11/16 10:53:57;;;;;;;13.13;6.80;;;31.20;75.00;;;;;;1912070;74;21207;-77
2022/11/16 10:56:38;;;;;;;10.70;5.42;;;31.20;75.30;;;;;;1914021;73;21249;-75
2022/11/16 10:59:21;;;;;;;10.50;5.30;;;31.20;75.50;;;;;;1797112;76;21150;-77
2022/11/16 11:02:00;;;;;;;7.60;3.62;;;31.10;75.40;;;;;;1842645;77;21179;-77
2022/11/16 11:04:31;;;;;;;6.67;3.52;;;31.20;75.70;;;;;;1850616;76;21162;-76
2022/11/16 11:07:38;;;;;;;11.85;3.72;;;31.10;75.70;;;;;;1847855;76;21788;-78
2022/11/16 11:10:28;;;;;;;8.13;4.30;;;31.10;75.80;;;;;;1856967;75;21049;-77
2022/11/16 11:13:14;;;;;;;9.28;4.70;;;31.00;75.90;;;;;;1851005;76;21141;-77
2022/11/16 11:15:46;;;;;;;;;;;31.00;76.20;;;;;;1933974;73;21155;-77
2022/11/16 11:18:28;;;;;;;7.58;5.00;;;31.00;76.40;;;;;;1921897;73;20242;-78
2022/11/16 11:21:22;;;;;;;7.37;4.03;;;31.00;76.20;;;;;;1902896;73;21141;-77
2022/11/16 11:23:55;;;;;;;8.43;3.27;;;31.00;76.10;;;;;;1919159;73;21681;-77
2022/11/16 11:26:36;;;;;;;11.25;3.70;;;31.00;76.20;;;;;;1849003;76;21207;-77
2022/11/16 11:32:17;;;;;;;9.88;4.10;;;31.00;76.40;;;;;;1782581;76;21235;-77
2022/11/16 11:34:56;;;;;;;8.88;4.33;;;31.00;76.50;;;;;;1914902;73;21131;-77
2022/11/16 11:37:32;;;;;;;7.80;3.85;;;30.90;76.70;;;;;;1921778;73;21127;-77
2022/11/16 11:40:31;;;;;;;8.58;4.60;;;30.90;76.80;;;;;;1928404;72;21128;-77
2022/11/16 11:43:08;;;;;;;12.82;6.35;;;30.90;77.10;;;;;;1912007;73;21139;-78
2022/11/16 11:45:51;;;;;;;12.58;7.12;;;30.90;77.60;;;;;;1866501;76;21182;-84
2022/11/16 11:48:46;;;;;;;11.88;7.05;;;30.90;77.60;;;;;;1846378;76;21204;-81
2022/11/16 11:51:31;;;;;;;8.80;5.37;;;30.80;77.90;;;;;;1892792;75;21724;-82
2022/11/16 11:54:17;;;;;;;8.80;5.53;;;30.80;78.30;;;;;;1887559;73;21057;-81
2022/11/16 11:56:48;;;;;;;12.82;6.97;;;30.80;78.50;;;;;;1887373;75;21155;-81
2022/11/16 11:59:21;;;;;;;12.20;6.22;;;30.80;78.70;;;;;;1902665;74;21057;-81
2022/11/16 12:02:01;;;;;;;14.15;6.60;;;30.80;78.80;;;;;;1838960;76;21654;-82
2022/11/16 12:05:07;;;;;;;15.03;6.90;;;30.80;79.00;;;;;;1901002;73;21285;-82
2022/11/16 12:07:57;;;;;;;14.55;7.05;;;30.80;79.20;;;;;;1900494;73;21118;-81
2022/11/16 12:10:39;;;;;;;12.78;7.03;;;30.80;79.60;;;;;;1911942;73;21100;-82
2022/11/16 12:13:23;;;;;;;14.15;7.37;;;30.70;79.60;;;;;;1912855;73;21179;-82
2022/11/16 12:16:09;;;;;;;12.73;7.37;;;30.70;79.70;;;;;;1911775;73;21118;-82
2022/11/16 12:19:15;;;;;;;12.15;6.85;;;30.70;79.80;;;;;;1836102;75;21649;-83
2022/11/16 12:22:35;;;;;;;;;;;;;;;;;;;;;
2022/11/16 12:25:30;;;;;;;14.25;7.37;;;30.70;81.10;;;;;;1743832;81;21243;-82
2022/11/16 12:28:25;;;;;;;14.90;7.90;;;30.60;80.10;;;;;;1714131;82;21301;-83
2022/11/16 12:31:04;;;;;;;13.38;7.53;;;30.60;80.30;;;;;;1747875;81;21130;-82
2022/11/16 12:33:40;;;;;;;16.00;7.35;;;30.60;80.40;;;;;;1721081;82;21158;-82
2022/11/16 12:36:23;;;;;;;16.05;7.62;;;30.60;80.50;;;;;;1735021;81;21582;-81
2022/11/16 12:39:10;;;;;;;17.15;7.78;;;30.60;80.30;;;;;;1762296;81;21223;-82
2022/11/16 12:41:51;;;;;;;15.98;8.78;;;30.60;80.30;;;;;;1728466;82;21833;-82
2022/11/16 12:44:40;;;;;;;15.30;8.90;;;30.60;80.30;;;;;;1740914;81;21169;-82
2022/11/16 12:47:16;;;;;;;20.40;10.03;;;30.60;80.50;;;;;;1756448;79;21328;-83
2022/11/16 12:50:08;;;;;;;14.58;8.50;;;30.60;80.60;;;;;;1759924;80;21201;-82
2022/11/16 12:52:47;;;;;;;12.82;7.55;;;30.50;80.30;;;;;;1729904;83;21218;-82
2022/11/16 12:55:23;;;;;;;14.65;8.28;;;30.50;80.40;;;;;;1739988;80;21222;-82
2022/11/16 12:58:21;;;;;;;15.75;8.53;;;30.50;80.50;;;;;;1727984;83;21551;-82
2022/11/16 13:01:20;;;;;;;14.25;8.80;;;30.50;80.70;;;;;;1785116;76;21609;-82
2022/11/16 13:03:54;;;;;;;17.35;10.00;;;30.50;80.90;;;;;;1898910;73;21119;-82
2022/11/16 13:06:46;;;;;;;18.95;11.08;;;30.50;81.00;;;;;;1900752;75;21155;-82
2022/11/16 13:09:20;;;;;;;17.20;10.88;;;30.50;81.10;;;;;;1908943;73;21143;-82
2022/11/16 13:11:54;;;;;;;20.17;12.45;;;30.50;82.40;;;;;;1938321;73;21130;-82
2022/11/16 13:14:35;;;;;;;23.27;12.37;;;30.40;81.40;;;;;;1937085;73;21149;-82
2022/11/16 13:17:37;;;;;;;;;;;;;;;;;;;;;
2022/11/16 13:20:04;;;;;;;24.75;14.38;;;30.40;81.80;;;;;;1785713;79;21236;-82
2022/11/16 13:22:38;;;;;;;24.02;14.10;;;30.40;82.00;;;;;;1807629;76;21144;-82
2022/11/16 13:25:22;;;;;;;22.87;13.20;;;30.30;82.30;;;;;;1931237;73;21214;-82
2022/11/16 13:27:51;;;;;;;24.40;14.13;;;30.30;82.50;;;;;;1929773;73;21116;-82
2022/11/16 13:30:24;;;;;;;24.47;14.40;;;30.30;82.80;;;;;;1936070;73;21718;-81
2022/11/16 13:32:59;;;;;;;28.50;15.85;;;30.30;83.10;;;;;;1938880;73;21064;-81
2022/11/16 13:35:33;;;;;;;23.47;12.90;;;30.30;83.30;;;;;;1945268;73;21167;-82
2022/11/16 13:38:04;;;;;;;23.42;13.95;;;30.30;83.00;;;;;;1925725;73;21161;-82
2022/11/16 13:40:46;;;;;;;24.20;14.58;;;30.30;83.10;;;;;;1941022;73;21139;-82
2022/11/16 13:46:55;;;;;;;;;;;;;;;;;;;;;
2022/11/16 13:49:39;;;;;;;19.40;11.88;;;30.30;82.80;;;;;;1921880;73;21182;-82
2022/11/16 13:52:20;;;;;;;17.35;11.65;;;30.20;83.10;;;;;;1924548;73;21141;-82
2022/11/16 13:54:58;;;;;;;21.77;12.03;;;30.20;83.00;;;;;;1940696;73;21095;-82
2022/11/16 13:57:36;;;;;;;21.73;11.70;;;30.10;83.10;;;;;;1941928;73;21196;-82
2022/11/16 14:00:21;;;;;;;23.10;12.47;;;30.10;83.40;;;;;;1936854;73;21331;-82
2022/11/16 14:03:41;;;;;;;;;;;;;;;;;;;;;
2022/11/16 14:06:26;;;;;;;21.57;11.15;;;30.10;83.20;;;;;;1921435;73;21130;-83
2022/11/16 14:09:01;;;;;;;15.53;9.30;;;30.10;83.00;;;;;;1923844;73;21260;-82
2022/11/16 14:11:43;;;;;;;17.55;9.53;;;30.00;82.60;;;;;;1934955;73;21069;-82
2022/11/16 14:14:48;;;;;;;19.85;9.40;;;30.00;82.60;;;;;;1952071;73;21104;-82
2022/11/16 14:17:59;;;;;;;13.40;8.85;;;30.00;82.60;;;;;;1861742;73;21568;-82
2022/11/16 14:20:55;;;;;;;14.65;9.18;;;30.00;82.80;;;;;;1947360;73;21107;-83
2022/11/16 14:23:38;;;;;;;18.00;9.95;;;30.00;83.20;;;;;;1937775;73;21149;-82
2022/11/16 14:26:27;;;;;;;17.45;9.73;;;30.00;83.60;;;;;;1942918;73;21076;-82
2022/11/16 14:29:00;;;;;;;16.48;10.08;;;30.00;83.70;;;;;;1949164;72;21187;-81
2022/11/16 14:41:02;;;;;;;13.68;9.10;;;29.90;84.90;;;;;;1824412;76;21952;-82
2022/11/16 14:43:53;;;;;;;18.42;9.90;;;29.90;84.90;;;;;;1806782;78;21167;-82
2022/11/16 14:46:25;;;;;;;17.57;9.98;;;29.80;85.10;;;;;;1850270;76;21248;-82
2022/11/16 14:48:58;;;;;;;15.32;9.48;;;29.80;85.40;;;;;;1851782;76;21199;-83
2022/11/16 14:51:40;;;;;;;16.62;9.75;;;29.80;85.60;;;;;;1857594;76;21162;-82
2022/11/16 14:54:17;;;;;;;24.63;10.40;;;29.80;85.50;;;;;;1834208;78;21160;-82
2022/11/16 14:57:10;;;;;;;17.85;10.15;;;29.70;85.40;;;;;;1837083;76;21189;-82
2022/11/16 14:59:50;;;;;;;17.92;10.53;;;29.70;85.80;;;;;;1831046;75;21265;-82
2022/11/16 15:02:23;;;;;;;17.45;10.13;;;29.60;86.30;;;;;;1850109;76;21186;-82
2022/11/16 15:07:43;;;;;;;23.55;11.22;;;29.60;87.10;;;;;;1763918;80;21119;-82
2022/11/16 15:10:19;;;;;;;16.77;10.32;;;29.60;86.80;;;;;;1824753;78;21176;-81
2022/11/16 15:12:58;;;;;;;17.98;10.50;;;29.50;87.10;;;;;;1843202;77;21123;-82
2022/11/16 15:15:34;;;;;;;18.52;11.28;;;29.50;87.60;;;;;;1900692;73;21190;-82
2022/11/16 15:18:09;;;;;;;19.65;10.70;;;29.50;87.90;;;;;;1927735;73;21613;-82
2022/11/16 15:20:45;;;;;;;20.32;11.60;;;29.50;88.20;;;;;;1946508;73;21214;-81
2022/11/16 15:23:20;;;;;;;16.67;10.43;;;29.40;88.10;;;;;;1924069;73;21225;-82
2022/11/16 15:26:03;;;;;;;20.92;11.05;;;29.50;87.80;;;;;;1933884;73;21155;-81
2022/11/16 15:28:32;;;;;;;;;;;29.40;87.70;;;;;;1924476;73;21069;-82
2022/11/16 15:31:05;;;;;;;20.08;9.88;;;29.40;87.20;;;;;;1930559;73;20209;-81
2022/11/16 15:36:39;;;;;;;17.77;10.60;;;29.40;87.90;;;;;;1871984;73;21144;-84
2022/11/16 15:39:31;;;;;;;15.35;9.93;;;29.40;87.70;;;;;;1921222;73;21163;-85
2022/11/16 15:42:16;;;;;;;17.95;10.15;;;29.40;87.60;;;;;;1916726;73;21129;-85
2022/11/16 15:47:56;;;;;;;16.97;10.15;;;29.40;87.60;;;;;;1892024;73;21473;-85
2022/11/16 15:51:09;;;;;;;17.85;10.32;;;29.40;87.40;;;;;;1796645;72;21336;-85
2022/11/16 15:55:02;;;;;;;17.52;10.48;;;29.40;87.40;;;;;;1838542;77;21120;-84
2022/11/16 15:57:10;;;;;;;;;;;;;;;;;;;;;
2022/11/16 16:00:10;;;;;;;;;;;;;;;;;;;;;